Atlantida Azul — CSYG2 — position and weather

sailwx.info

Track history (hours):
 
Tides and Currents Weather Stations Pressure Air Temp Water Temp Dewpoint Dewpoint Depression Visibility Wind Speed Wind Dir Waves Ship Positions

Atlantida Azul

Last reported at 2015-Feb-28 19:33 UTC. Time now 2015-Feb-28 20:56 UTC.
Position N 37°56' W 008°52'.

Length 16 m.

Type: Pilot. MMSI: 263672880.

Date/timePositionNaut miles runAvg speedWind from/ knotsBaromVisibWave heightAir tempDewpointWater temp
2015-Feb-28 19:33N 37°56' W 008°52'1 1.1
2015-Feb-28 18:31N 37°57' W 008°53'1 0.3
2015-Feb-28 14:11N 37°57' W 008°52'0 0.0
2015-Feb-28 04:15N 37°57' W 008°52'0 0.0
2015-Feb-28 01:17N 37°57' W 008°52'0 0.0
2015-Feb-28 00:32N 37°57' W 008°52'0 0.0
2015-Feb-27 20:34N 37°57' W 008°52'1 0.2
2015-Feb-27 14:33N 37°56' W 008°52'1 1.0
2015-Feb-27 13:33N 37°57' W 008°53'0 0.2
2015-Feb-27 12:33N 37°57' W 008°53'1 0.5
2015-Feb-27 10:09N 37°57' W 008°52'0 0.0
2015-Feb-27 09:30N 37°57' W 008°52'1 0.4
2015-Feb-27 06:33N 37°57' W 008°53'1 0.1
2015-Feb-26 23:33N 37°56' W 008°52'1 0.4
2015-Feb-26 21:06N 37°57' W 008°52'1 2.3
2015-Feb-26 20:33N 37°57' W 008°53'1 0.4
2015-Feb-26 16:31N 37°56' W 008°52'1 0.6
2015-Feb-26 15:33N 37°57' W 008°52'1 0.0
2015-Feb-25 13:31N 37°56' W 008°51'0 0.2
2015-Feb-25 12:31N 37°56' W 008°51'0 0.4
2015-Feb-25 11:32N 37°56' W 008°51'1 0.1
2015-Feb-25 01:27N 37°57' W 008°52'1 1.4
2015-Feb-25 00:33N 37°57' W 008°53'3 3.3
2015-Feb-24 23:33N 37°54' W 008°51'1 1.2
2015-Feb-24 22:33N 37°54' W 008°53'1 0.1
2015-Feb-24 08:33N 37°56' W 008°53'1 1.4
2015-Feb-24 07:31N 37°57' W 008°53'0 0.1
2015-Feb-24 02:33N 37°57' W 008°53'1 0.2
2015-Feb-23 19:17N 37°57' W 008°52'1 1.4
2015-Feb-23 18:33N 37°56' W 008°51'1 0.3
2015-Feb-23 14:32N 37°57' W 008°52'0 0.0
2015-Feb-23 11:25N 37°57' W 008°52'0 0.0
2015-Feb-23 09:19N 37°57' W 008°52'1 0.2
2015-Feb-23 03:31N 37°57' W 008°53'0 0.3
2015-Feb-23 02:33N 37°57' W 008°53'2 1.8
2015-Feb-23 01:32N 37°56' W 008°51'2 1.8
2015-Feb-23 00:32N 37°57' W 008°53'1 1.0
2015-Feb-22 23:31N 37°57' W 008°52'1 0.1
2015-Feb-22 16:33N 37°57' W 008°53'1 0.8
2015-Feb-22 15:33N 37°57' W 008°52'0 0.0
2015-Feb-22 11:31N 37°57' W 008°52'1 0.2
2015-Feb-22 06:33N 37°57' W 008°53'1 0.2
2015-Feb-22 02:14N 37°56' W 008°53'1 0.5
2015-Feb-21 23:33N 37°57' W 008°52'0 0.0
2015-Feb-21 22:34N 37°57' W 008°52'0 0.2
2015-Feb-21 21:33N 37°57' W 008°52'0 0.1
2015-Feb-21 18:33N 37°57' W 008°52'0 0.0
2015-Feb-21 10:12N 37°57' W 008°52'1 1.8
2015-Feb-21 09:31N 37°57' W 008°53'0 0.1
2015-Feb-21 08:32N 37°57' W 008°53'1 0.3
2015-Feb-21 04:32N 37°57' W 008°52'0 0.3
2015-Feb-21 03:33N 37°57' W 008°52'0 0.0
2015-Feb-20 23:30N 37°57' W 008°52'0 0.1
2015-Feb-20 20:33N 37°57' W 008°52'0 0.3
2015-Feb-20 19:23N 37°57' W 008°52'0 0.0
2015-Feb-20 12:14N 37°57' W 008°52'1 2.1
2015-Feb-20 11:32N 37°56' W 008°51'2 2.0
2015-Feb-20 10:32N 37°57' W 008°52'2 1.8
2015-Feb-20 09:32N 37°56' W 008°51'2 2.0
2015-Feb-20 08:33N 37°56' W 008°53'1 1.4
2015-Feb-20 07:33N 37°57' W 008°52'0 0.0
2015-Feb-20 05:19N 37°57' W 008°52'1 0.3
2015-Feb-20 02:32N 37°56' W 008°51'2 2.3
2015-Feb-20 01:33N 37°54' W 008°51'3 0.9
2015-Feb-19 22:06N 37°57' W 008°52'1 2.1
2015-Feb-19 21:33N 37°57' W 008°53'1 0.1
2015-Feb-19 09:26N 37°57' W 008°52'1 1.4
2015-Feb-19 08:32N 37°57' W 008°53'0 0.2
2015-Feb-19 07:33N 37°57' W 008°53'1 0.2
2015-Feb-19 02:19N 37°57' W 008°52'  
Track history (hours):
 
Tides and Currents Weather Stations Pressure Air Temp Water Temp Dewpoint Dewpoint Depression Visibility Wind Speed Wind Dir Waves Ship Positions

Atlantida Azul

Last reported at 2015-Feb-28 19:33 UTC. Time now 2015-Feb-28 20:56 UTC.
Position N 37°56' W 008°52'.

Length 16 m.

Type: Pilot. MMSI: 263672880.

Date/timePositionNaut miles runAvg speedWind from/ knotsBaromVisibWave heightAir tempDewpointWater temp
2015-Feb-28 19:33N 37°56' W 008°52'1 1.1
2015-Feb-28 18:31N 37°57' W 008°53'1 0.3
2015-Feb-28 14:11N 37°57' W 008°52'0 0.0
2015-Feb-28 04:15N 37°57' W 008°52'0 0.0
2015-Feb-28 01:17N 37°57' W 008°52'0 0.0
2015-Feb-28 00:32N 37°57' W 008°52'0 0.0
2015-Feb-27 20:34N 37°57' W 008°52'1 0.2
2015-Feb-27 14:33N 37°56' W 008°52'1 1.0
2015-Feb-27 13:33N 37°57' W 008°53'0 0.2
2015-Feb-27 12:33N 37°57' W 008°53'1 0.5
2015-Feb-27 10:09N 37°57' W 008°52'0 0.0
2015-Feb-27 09:30N 37°57' W 008°52'1 0.4
2015-Feb-27 06:33N 37°57' W 008°53'1 0.1
2015-Feb-26 23:33N 37°56' W 008°52'1 0.4
2015-Feb-26 21:06N 37°57' W 008°52'1 2.3
2015-Feb-26 20:33N 37°57' W 008°53'1 0.4
2015-Feb-26 16:31N 37°56' W 008°52'1 0.6
2015-Feb-26 15:33N 37°57' W 008°52'1 0.0
2015-Feb-25 13:31N 37°56' W 008°51'0 0.2
2015-Feb-25 12:31N 37°56' W 008°51'0 0.4
2015-Feb-25 11:32N 37°56' W 008°51'1 0.1
2015-Feb-25 01:27N 37°57' W 008°52'1 1.4
2015-Feb-25 00:33N 37°57' W 008°53'3 3.3
2015-Feb-24 23:33N 37°54' W 008°51'1 1.2
2015-Feb-24 22:33N 37°54' W 008°53'1 0.1
2015-Feb-24 08:33N 37°56' W 008°53'1 1.4
2015-Feb-24 07:31N 37°57' W 008°53'0 0.1
2015-Feb-24 02:33N 37°57' W 008°53'1 0.2
2015-Feb-23 19:17N 37°57' W 008°52'1 1.4
2015-Feb-23 18:33N 37°56' W 008°51'1 0.3
2015-Feb-23 14:32N 37°57' W 008°52'0 0.0
2015-Feb-23 11:25N 37°57' W 008°52'0 0.0
2015-Feb-23 09:19N 37°57' W 008°52'1 0.2
2015-Feb-23 03:31N 37°57' W 008°53'0 0.3
2015-Feb-23 02:33N 37°57' W 008°53'2 1.8
2015-Feb-23 01:32N 37°56' W 008°51'2 1.8
2015-Feb-23 00:32N 37°57' W 008°53'1 1.0
2015-Feb-22 23:31N 37°57' W 008°52'1 0.1
2015-Feb-22 16:33N 37°57' W 008°53'1 0.8
2015-Feb-22 15:33N 37°57' W 008°52'0 0.0
2015-Feb-22 11:31N 37°57' W 008°52'1 0.2
2015-Feb-22 06:33N 37°57' W 008°53'1 0.2
2015-Feb-22 02:14N 37°56' W 008°53'1 0.5
2015-Feb-21 23:33N 37°57' W 008°52'0 0.0
2015-Feb-21 22:34N 37°57' W 008°52'0 0.2
2015-Feb-21 21:33N 37°57' W 008°52'0 0.1
2015-Feb-21 18:33N 37°57' W 008°52'0 0.0
2015-Feb-21 10:12N 37°57' W 008°52'1 1.8
2015-Feb-21 09:31N 37°57' W 008°53'0 0.1
2015-Feb-21 08:32N 37°57' W 008°53'1 0.3
2015-Feb-21 04:32N 37°57' W 008°52'0 0.3
2015-Feb-21 03:33N 37°57' W 008°52'0 0.0
2015-Feb-20 23:30N 37°57' W 008°52'0 0.1
2015-Feb-20 20:33N 37°57' W 008°52'0 0.3
2015-Feb-20 19:23N 37°57' W 008°52'0 0.0
2015-Feb-20 12:14N 37°57' W 008°52'1 2.1
2015-Feb-20 11:32N 37°56' W 008°51'2 2.0
2015-Feb-20 10:32N 37°57' W 008°52'2 1.8
2015-Feb-20 09:32N 37°56' W 008°51'2 2.0
2015-Feb-20 08:33N 37°56' W 008°53'1 1.4
2015-Feb-20 07:33N 37°57' W 008°52'0 0.0
2015-Feb-20 05:19N 37°57' W 008°52'1 0.3
2015-Feb-20 02:32N 37°56' W 008°51'2 2.3
2015-Feb-20 01:33N 37°54' W 008°51'3 0.9
2015-Feb-19 22:06N 37°57' W 008°52'1 2.1
2015-Feb-19 21:33N 37°57' W 008°53'1 0.1
2015-Feb-19 09:26N 37°57' W 008°52'1 1.4
2015-Feb-19 08:32N 37°57' W 008°53'0 0.2
2015-Feb-19 07:33N 37°57' W 008°53'1 0.2
2015-Feb-19 02:19N 37°57' W 008°52'  

Dump ship's entire track history